sensor_id;sensor_type;location;lat;lon;timestamp;P1;durP1;ratioP1;P2;durP2;ratioP2
12689;SDS011;6409;56.294;14.480;2022-12-29T00:01:28;2.53;;;2.43;;
12689;SDS011;6409;56.294;14.480;2022-12-29T00:03:56;2.50;;;2.40;;
12689;SDS011;6409;56.294;14.480;2022-12-29T00:06:23;3.17;;;2.90;;
12689;SDS011;6409;56.294;14.480;2022-12-29T00:08:50;2.47;;;2.37;;
12689;SDS011;6409;56.294;14.480;2022-12-29T00:11:18;4.93;;;2.60;;
12689;SDS011;6409;56.294;14.480;2022-12-29T00:13:47;2.93;;;2.80;;
12689;SDS011;6409;56.294;14.480;2022-12-29T00:16:32;2.73;;;2.60;;
12689;SDS011;6409;56.294;14.480;2022-12-29T00:19:00;5.23;;;2.47;;
12689;SDS011;6409;56.294;14.480;2022-12-29T00:21:28;17.67;;;2.93;;
12689;SDS011;6409;56.294;14.480;2022-12-29T00:24:17;2.60;;;2.40;;
12689;SDS011;6409;56.294;14.480;2022-12-29T00:27:11;18.30;;;3.77;;
12689;SDS011;6409;56.294;14.480;2022-12-29T00:29:56;49.67;;;6.43;;
12689;SDS011;6409;56.294;14.480;2022-12-29T00:32:41;2.57;;;2.47;;
12689;SDS011;6409;56.294;14.480;2022-12-29T00:35:26;2.60;;;2.50;;
12689;SDS011;6409;56.294;14.480;2022-12-29T00:37:55;2.40;;;2.30;;
12689;SDS011;6409;56.294;14.480;2022-12-29T00:40:41;2.87;;;2.77;;
12689;SDS011;6409;56.294;14.480;2022-12-29T00:43:27;2.60;;;2.50;;
12689;SDS011;6409;56.294;14.480;2022-12-29T00:46:11;2.60;;;2.50;;
12689;SDS011;6409;56.294;14.480;2022-12-29T00:48:38;2.60;;;2.50;;
12689;SDS011;6409;56.294;14.480;2022-12-29T00:51:22;2.60;;;2.50;;
12689;SDS011;6409;56.294;14.480;2022-12-29T00:53:49;2.80;;;2.60;;
12689;SDS011;6409;56.294;14.480;2022-12-29T00:56:16;2.80;;;2.60;;
12689;SDS011;6409;56.294;14.480;2022-12-29T00:58:44;2.60;;;2.50;;
12689;SDS011;6409;56.294;14.480;2022-12-29T01:01:11;2.53;;;2.43;;
12689;SDS011;6409;56.294;14.480;2022-12-29T01:03:38;2.60;;;2.50;;
12689;SDS011;6409;56.294;14.480;2022-12-29T01:06:06;2.50;;;2.40;;
12689;SDS011;6409;56.294;14.480;2022-12-29T01:08:34;2.47;;;2.37;;
12689;SDS011;6409;56.294;14.480;2022-12-29T01:11:02;2.30;;;2.20;;
12689;SDS011;6409;56.294;14.480;2022-12-29T01:13:29;2.13;;;2.03;;
12689;SDS011;6409;56.294;14.480;2022-12-29T01:15:58;2.40;;;2.30;;
12689;SDS011;6409;56.294;14.480;2022-12-29T01:18:25;2.27;;;2.17;;
12689;SDS011;6409;56.294;14.480;2022-12-29T01:20:57;2.27;;;2.17;;
12689;SDS011;6409;56.294;14.480;2022-12-29T01:23:25;2.13;;;2.07;;
12689;SDS011;6409;56.294;14.480;2022-12-29T01:25:52;2.20;;;2.00;;
12689;SDS011;6409;56.294;14.480;2022-12-29T01:28:18;2.20;;;2.10;;
12689;SDS011;6409;56.294;14.480;2022-12-29T01:30:45;2.10;;;2.00;;
12689;SDS011;6409;56.294;14.480;2022-12-29T01:33:14;2.20;;;2.10;;
12689;SDS011;6409;56.294;14.480;2022-12-29T01:35:41;2.10;;;2.00;;
12689;SDS011;6409;56.294;14.480;2022-12-29T01:38:07;2.20;;;2.10;;
12689;SDS011;6409;56.294;14.480;2022-12-29T01:40:42;5.00;;;2.27;;
12689;SDS011;6409;56.294;14.480;2022-12-29T01:43:10;2.43;;;2.33;;
12689;SDS011;6409;56.294;14.480;2022-12-29T01:45:38;2.37;;;2.27;;
12689;SDS011;6409;56.294;14.480;2022-12-29T01:48:08;2.20;;;2.10;;
12689;SDS011;6409;56.294;14.480;2022-12-29T01:50:38;2.10;;;2.00;;
12689;SDS011;6409;56.294;14.480;2022-12-29T01:53:07;3.97;;;1.97;;
12689;SDS011;6409;56.294;14.480;2022-12-29T01:55:37;2.20;;;2.10;;
12689;SDS011;6409;56.294;14.480;2022-12-29T01:58:08;2.17;;;2.07;;
12689;SDS011;6409;56.294;14.480;2022-12-29T02:00:36;2.30;;;2.20;;
12689;SDS011;6409;56.294;14.480;2022-12-29T02:03:03;2.10;;;2.00;;
12689;SDS011;6409;56.294;14.480;2022-12-29T02:05:32;2.10;;;2.00;;
12689;SDS011;6409;56.294;14.480;2022-12-29T02:08:03;2.20;;;2.10;;
12689;SDS011;6409;56.294;14.480;2022-12-29T02:10:31;2.20;;;2.00;;
12689;SDS011;6409;56.294;14.480;2022-12-29T02:13:02;2.03;;;1.93;;
12689;SDS011;6409;56.294;14.480;2022-12-29T02:15:31;2.37;;;2.27;;
12689;SDS011;6409;56.294;14.480;2022-12-29T02:18:09;2.27;;;2.17;;
12689;SDS011;6409;56.294;14.480;2022-12-29T02:24:02;2.43;;;2.30;;
12689;SDS011;6409;56.294;14.480;2022-12-29T02:29:51;2.23;;;2.03;;
12689;SDS011;6409;56.294;14.480;2022-12-29T02:32:32;2.10;;;2.00;;
12689;SDS011;6409;56.294;14.480;2022-12-29T02:35:06;2.20;;;2.10;;
12689;SDS011;6409;56.294;14.480;2022-12-29T02:37:37;2.20;;;2.10;;
12689;SDS011;6409;56.294;14.480;2022-12-29T02:40:10;2.27;;;2.17;;
12689;SDS011;6409;56.294;14.480;2022-12-29T02:42:46;3.13;;;2.40;;
12689;SDS011;6409;56.294;14.480;2022-12-29T02:45:15;2.40;;;2.30;;
12689;SDS011;6409;56.294;14.480;2022-12-29T02:47:48;3.03;;;2.40;;
12689;SDS011;6409;56.294;14.480;2022-12-29T02:50:20;2.53;;;2.43;;
12689;SDS011;6409;56.294;14.480;2022-12-29T02:52:50;2.30;;;2.13;;
12689;SDS011;6409;56.294;14.480;2022-12-29T02:55:18;2.93;;;2.60;;
12689;SDS011;6409;56.294;14.480;2022-12-29T02:57:44;2.40;;;2.30;;
12689;SDS011;6409;56.294;14.480;2022-12-29T03:00:12;2.83;;;2.67;;
12689;SDS011;6409;56.294;14.480;2022-12-29T03:02:48;2.40;;;2.30;;
12689;SDS011;6409;56.294;14.480;2022-12-29T03:05:45;9.03;;;2.60;;
12689;SDS011;6409;56.294;14.480;2022-12-29T03:08:23;2.37;;;2.27;;
12689;SDS011;6409;56.294;14.480;2022-12-29T03:11:01;2.33;;;2.13;;
12689;SDS011;6409;56.294;14.480;2022-12-29T03:13:33;2.30;;;2.20;;
12689;SDS011;6409;56.294;14.480;2022-12-29T03:16:23;2.37;;;2.27;;
12689;SDS011;6409;56.294;14.480;2022-12-29T03:18:57;2.80;;;2.60;;
12689;SDS011;6409;56.294;14.480;2022-12-29T03:21:28;3.33;;;2.30;;
12689;SDS011;6409;56.294;14.480;2022-12-29T03:24:15;2.53;;;2.33;;
12689;SDS011;6409;56.294;14.480;2022-12-29T03:26:44;6.40;;;2.20;;
12689;SDS011;6409;56.294;14.480;2022-12-29T03:29:12;2.20;;;2.10;;
12689;SDS011;6409;56.294;14.480;2022-12-29T03:31:40;2.47;;;2.33;;
12689;SDS011;6409;56.294;14.480;2022-12-29T03:34:10;2.63;;;2.43;;
12689;SDS011;6409;56.294;14.480;2022-12-29T03:36:39;2.30;;;2.20;;
12689;SDS011;6409;56.294;14.480;2022-12-29T03:39:11;2.97;;;2.30;;
12689;SDS011;6409;56.294;14.480;2022-12-29T03:41:40;2.30;;;2.20;;
12689;SDS011;6409;56.294;14.480;2022-12-29T03:44:09;2.43;;;2.23;;
12689;SDS011;6409;56.294;14.480;2022-12-29T03:46:37;3.43;;;2.60;;
12689;SDS011;6409;56.294;14.480;2022-12-29T03:49:04;2.77;;;2.57;;
12689;SDS011;6409;56.294;14.480;2022-12-29T03:51:32;2.53;;;2.30;;
12689;SDS011;6409;56.294;14.480;2022-12-29T03:53:59;2.40;;;2.23;;
12689;SDS011;6409;56.294;14.480;2022-12-29T03:56:26;2.53;;;2.40;;
12689;SDS011;6409;56.294;14.480;2022-12-29T03:58:53;2.57;;;2.37;;
12689;SDS011;6409;56.294;14.480;2022-12-29T04:01:20;3.50;;;2.60;;
12689;SDS011;6409;56.294;14.480;2022-12-29T04:03:47;3.13;;;2.73;;
12689;SDS011;6409;56.294;14.480;2022-12-29T04:06:14;3.00;;;2.80;;
12689;SDS011;6409;56.294;14.480;2022-12-29T04:08:42;3.00;;;2.80;;
12689;SDS011;6409;56.294;14.480;2022-12-29T04:11:09;2.67;;;2.50;;
12689;SDS011;6409;56.294;14.480;2022-12-29T04:13:36;2.70;;;2.50;;
12689;SDS011;6409;56.294;14.480;2022-12-29T04:16:05;2.47;;;2.37;;
12689;SDS011;6409;56.294;14.480;2022-12-29T04:18:33;2.80;;;2.60;;
12689;SDS011;6409;56.294;14.480;2022-12-29T04:21:00;2.30;;;2.20;;
12689;SDS011;6409;56.294;14.480;2022-12-29T04:23:28;2.33;;;2.23;;
12689;SDS011;6409;56.294;14.480;2022-12-29T04:25:56;2.30;;;2.20;;
12689;SDS011;6409;56.294;14.480;2022-12-29T04:28:23;2.20;;;2.10;;
12689;SDS011;6409;56.294;14.480;2022-12-29T04:30:50;1.90;;;1.80;;
12689;SDS011;6409;56.294;14.480;2022-12-29T04:33:17;2.10;;;2.00;;
12689;SDS011;6409;56.294;14.480;2022-12-29T04:35:45;2.30;;;2.20;;
12689;SDS011;6409;56.294;14.480;2022-12-29T04:38:12;2.00;;;1.90;;
12689;SDS011;6409;56.294;14.480;2022-12-29T04:40:39;2.30;;;2.20;;
12689;SDS011;6409;56.294;14.480;2022-12-29T04:43:08;1.90;;;1.90;;
12689;SDS011;6409;56.294;14.480;2022-12-29T04:45:35;1.93;;;1.83;;
12689;SDS011;6409;56.294;14.480;2022-12-29T04:48:02;1.80;;;1.70;;
12689;SDS011;6409;56.294;14.480;2022-12-29T04:50:30;1.90;;;1.80;;
12689;SDS011;6409;56.294;14.480;2022-12-29T04:52:57;1.67;;;1.67;;
12689;SDS011;6409;56.294;14.480;2022-12-29T04:55:23;2.37;;;2.20;;
12689;SDS011;6409;56.294;14.480;2022-12-29T04:57:50;2.03;;;1.90;;
12689;SDS011;6409;56.294;14.480;2022-12-29T05:00:19;2.50;;;1.80;;
12689;SDS011;6409;56.294;14.480;2022-12-29T05:02:46;2.47;;;2.27;;
12689;SDS011;6409;56.294;14.480;2022-12-29T05:05:13;2.00;;;1.90;;
12689;SDS011;6409;56.294;14.480;2022-12-29T05:07:40;1.73;;;1.70;;
12689;SDS011;6409;56.294;14.480;2022-12-29T05:10:07;2.00;;;1.90;;
12689;SDS011;6409;56.294;14.480;2022-12-29T05:12:35;1.70;;;1.70;;
12689;SDS011;6409;56.294;14.480;2022-12-29T05:15:03;1.60;;;1.60;;
12689;SDS011;6409;56.294;14.480;2022-12-29T05:17:32;1.77;;;1.70;;
12689;SDS011;6409;56.294;14.480;2022-12-29T05:19:59;1.93;;;1.83;;
12689;SDS011;6409;56.294;14.480;2022-12-29T05:22:26;1.70;;;1.60;;
12689;SDS011;6409;56.294;14.480;2022-12-29T05:24:53;1.63;;;1.63;;
12689;SDS011;6409;56.294;14.480;2022-12-29T05:27:20;1.70;;;1.70;;
12689;SDS011;6409;56.294;14.480;2022-12-29T05:29:47;1.73;;;1.63;;
12689;SDS011;6409;56.294;14.480;2022-12-29T05:32:14;1.90;;;1.80;;
12689;SDS011;6409;56.294;14.480;2022-12-29T05:34:42;1.80;;;1.80;;
12689;SDS011;6409;56.294;14.480;2022-12-29T05:37:09;2.33;;;2.00;;
12689;SDS011;6409;56.294;14.480;2022-12-29T05:39:36;2.00;;;1.90;;
12689;SDS011;6409;56.294;14.480;2022-12-29T05:42:03;2.20;;;2.10;;
12689;SDS011;6409;56.294;14.480;2022-12-29T05:44:30;2.03;;;1.93;;
12689;SDS011;6409;56.294;14.480;2022-12-29T05:46:57;1.70;;;1.70;;
12689;SDS011;6409;56.294;14.480;2022-12-29T05:49:24;2.10;;;2.00;;
12689;SDS011;6409;56.294;14.480;2022-12-29T05:51:52;3.67;;;2.10;;
12689;SDS011;6409;56.294;14.480;2022-12-29T05:54:19;2.00;;;1.90;;
12689;SDS011;6409;56.294;14.480;2022-12-29T05:56:46;4.57;;;2.10;;
12689;SDS011;6409;56.294;14.480;2022-12-29T05:59:13;3.00;;;2.40;;
12689;SDS011;6409;56.294;14.480;2022-12-29T06:01:40;3.50;;;2.07;;
12689;SDS011;6409;56.294;14.480;2022-12-29T06:04:07;2.33;;;2.23;;
12689;SDS011;6409;56.294;14.480;2022-12-29T06:06:33;2.00;;;1.90;;
12689;SDS011;6409;56.294;14.480;2022-12-29T06:09:02;2.40;;;2.30;;
12689;SDS011;6409;56.294;14.480;2022-12-29T06:11:29;2.50;;;2.33;;
12689;SDS011;6409;56.294;14.480;2022-12-29T06:13:56;2.70;;;2.50;;
12689;SDS011;6409;56.294;14.480;2022-12-29T06:16:23;3.13;;;2.83;;
12689;SDS011;6409;56.294;14.480;2022-12-29T06:18:50;3.20;;;3.00;;
12689;SDS011;6409;56.294;14.480;2022-12-29T06:21:17;2.93;;;2.73;;
12689;SDS011;6409;56.294;14.480;2022-12-29T06:23:43;2.77;;;2.57;;
12689;SDS011;6409;56.294;14.480;2022-12-29T06:26:12;3.30;;;3.00;;
12689;SDS011;6409;56.294;14.480;2022-12-29T06:28:39;3.30;;;3.10;;
12689;SDS011;6409;56.294;14.480;2022-12-29T06:31:08;3.67;;;3.37;;
12689;SDS011;6409;56.294;14.480;2022-12-29T06:33:35;3.13;;;2.93;;
12689;SDS011;6409;56.294;14.480;2022-12-29T06:36:02;3.30;;;3.10;;
12689;SDS011;6409;56.294;14.480;2022-12-29T06:38:29;3.33;;;3.03;;
12689;SDS011;6409;56.294;14.480;2022-12-29T06:40:56;3.67;;;3.20;;
12689;SDS011;6409;56.294;14.480;2022-12-29T06:43:24;6.00;;;3.33;;
12689;SDS011;6409;56.294;14.480;2022-12-29T06:45:51;3.70;;;3.40;;
12689;SDS011;6409;56.294;14.480;2022-12-29T06:48:18;3.40;;;3.10;;
12689;SDS011;6409;56.294;14.480;2022-12-29T06:50:45;5.50;;;4.27;;
12689;SDS011;6409;56.294;14.480;2022-12-29T06:53:12;9.67;;;3.70;;
12689;SDS011;6409;56.294;14.480;2022-12-29T06:55:39;3.90;;;3.50;;
12689;SDS011;6409;56.294;14.480;2022-12-29T06:58:07;3.77;;;3.47;;
12689;SDS011;6409;56.294;14.480;2022-12-29T07:00:36;3.73;;;3.30;;
12689;SDS011;6409;56.294;14.480;2022-12-29T07:03:02;4.80;;;3.90;;
12689;SDS011;6409;56.294;14.480;2022-12-29T07:05:29;4.07;;;3.47;;
12689;SDS011;6409;56.294;14.480;2022-12-29T07:07:57;3.53;;;3.23;;
12689;SDS011;6409;56.294;14.480;2022-12-29T07:10:25;3.80;;;3.43;;
12689;SDS011;6409;56.294;14.480;2022-12-29T07:12:55;4.30;;;3.33;;
12689;SDS011;6409;56.294;14.480;2022-12-29T07:15:22;3.33;;;3.13;;
12689;SDS011;6409;56.294;14.480;2022-12-29T07:17:50;3.50;;;3.20;;
12689;SDS011;6409;56.294;14.480;2022-12-29T07:20:17;4.07;;;3.17;;
12689;SDS011;6409;56.294;14.480;2022-12-29T07:22:44;3.73;;;3.43;;
12689;SDS011;6409;56.294;14.480;2022-12-29T07:25:12;3.40;;;3.10;;
12689;SDS011;6409;56.294;14.480;2022-12-29T07:27:39;4.03;;;3.30;;
12689;SDS011;6409;56.294;14.480;2022-12-29T07:30:06;3.47;;;3.17;;
12689;SDS011;6409;56.294;14.480;2022-12-29T07:32:34;3.33;;;3.13;;
12689;SDS011;6409;56.294;14.480;2022-12-29T07:35:02;3.47;;;3.17;;
12689;SDS011;6409;56.294;14.480;2022-12-29T07:37:29;3.87;;;3.57;;
12689;SDS011;6409;56.294;14.480;2022-12-29T07:39:56;3.77;;;3.00;;
12689;SDS011;6409;56.294;14.480;2022-12-29T07:42:23;3.40;;;3.10;;
12689;SDS011;6409;56.294;14.480;2022-12-29T07:44:50;3.17;;;2.97;;
12689;SDS011;6409;56.294;14.480;2022-12-29T07:47:17;3.27;;;2.97;;
12689;SDS011;6409;56.294;14.480;2022-12-29T07:49:44;5.00;;;3.40;;
12689;SDS011;6409;56.294;14.480;2022-12-29T07:52:12;3.47;;;3.23;;
12689;SDS011;6409;56.294;14.480;2022-12-29T07:54:39;4.00;;;3.70;;
12689;SDS011;6409;56.294;14.480;2022-12-29T07:57:06;3.57;;;3.27;;
12689;SDS011;6409;56.294;14.480;2022-12-29T07:59:33;3.23;;;2.90;;
12689;SDS011;6409;56.294;14.480;2022-12-29T08:02:00;3.00;;;2.80;;
12689;SDS011;6409;56.294;14.480;2022-12-29T08:04:27;3.57;;;3.33;;
12689;SDS011;6409;56.294;14.480;2022-12-29T08:06:54;3.83;;;3.43;;
12689;SDS011;6409;56.294;14.480;2022-12-29T08:09:22;5.50;;;3.37;;
12689;SDS011;6409;56.294;14.480;2022-12-29T08:11:49;2.97;;;2.77;;
12689;SDS011;6409;56.294;14.480;2022-12-29T08:14:16;3.93;;;3.57;;
12689;SDS011;6409;56.294;14.480;2022-12-29T08:16:43;3.90;;;3.33;;
12689;SDS011;6409;56.294;14.480;2022-12-29T08:19:10;4.40;;;3.10;;
12689;SDS011;6409;56.294;14.480;2022-12-29T08:21:37;3.47;;;3.17;;
12689;SDS011;6409;56.294;14.480;2022-12-29T08:24:05;3.63;;;3.33;;
12689;SDS011;6409;56.294;14.480;2022-12-29T08:26:33;4.87;;;3.13;;
12689;SDS011;6409;56.294;14.480;2022-12-29T08:29:00;5.40;;;3.20;;
12689;SDS011;6409;56.294;14.480;2022-12-29T08:31:27;3.90;;;3.53;;
12689;SDS011;6409;56.294;14.480;2022-12-29T08:33:54;3.87;;;3.50;;
12689;SDS011;6409;56.294;14.480;2022-12-29T08:36:21;4.00;;;3.70;;
12689;SDS011;6409;56.294;14.480;2022-12-29T08:38:48;4.20;;;3.67;;
12689;SDS011;6409;56.294;14.480;2022-12-29T08:41:15;3.83;;;3.53;;
12689;SDS011;6409;56.294;14.480;2022-12-29T08:43:46;4.30;;;3.90;;
12689;SDS011;6409;56.294;14.480;2022-12-29T08:46:13;4.37;;;4.07;;
12689;SDS011;6409;56.294;14.480;2022-12-29T08:48:40;5.60;;;4.00;;
12689;SDS011;6409;56.294;14.480;2022-12-29T08:51:07;6.33;;;4.10;;
12689;SDS011;6409;56.294;14.480;2022-12-29T08:53:34;3.37;;;3.07;;
12689;SDS011;6409;56.294;14.480;2022-12-29T08:56:01;5.17;;;4.20;;
12689;SDS011;6409;56.294;14.480;2022-12-29T08:58:28;8.53;;;4.23;;
12689;SDS011;6409;56.294;14.480;2022-12-29T09:00:57;4.30;;;3.90;;
12689;SDS011;6409;56.294;14.480;2022-12-29T09:03:24;4.23;;;3.83;;
12689;SDS011;6409;56.294;14.480;2022-12-29T09:05:52;6.17;;;4.80;;
12689;SDS011;6409;56.294;14.480;2022-12-29T09:08:20;4.60;;;3.83;;
12689;SDS011;6409;56.294;14.480;2022-12-29T09:10:47;4.27;;;3.97;;
12689;SDS011;6409;56.294;14.480;2022-12-29T09:13:15;4.20;;;3.80;;
12689;SDS011;6409;56.294;14.480;2022-12-29T09:15:42;4.97;;;3.63;;
12689;SDS011;6409;56.294;14.480;2022-12-29T09:18:11;3.23;;;2.90;;
12689;SDS011;6409;56.294;14.480;2022-12-29T09:20:38;3.37;;;3.17;;
12689;SDS011;6409;56.294;14.480;2022-12-29T09:23:05;4.67;;;4.23;;
12689;SDS011;6409;56.294;14.480;2022-12-29T09:25:32;3.30;;;3.10;;
12689;SDS011;6409;56.294;14.480;2022-12-29T09:27:59;2.90;;;2.70;;
12689;SDS011;6409;56.294;14.480;2022-12-29T09:30:29;3.00;;;2.80;;
12689;SDS011;6409;56.294;14.480;2022-12-29T09:32:56;5.20;;;3.33;;
12689;SDS011;6409;56.294;14.480;2022-12-29T09:35:24;3.60;;;3.30;;
12689;SDS011;6409;56.294;14.480;2022-12-29T09:37:51;3.90;;;2.87;;
12689;SDS011;6409;56.294;14.480;2022-12-29T09:40:22;2.87;;;2.67;;
12689;SDS011;6409;56.294;14.480;2022-12-29T09:42:58;2.70;;;2.60;;
12689;SDS011;6409;56.294;14.480;2022-12-29T09:45:32;3.67;;;2.70;;
12689;SDS011;6409;56.294;14.480;2022-12-29T09:48:03;2.70;;;2.50;;
12689;SDS011;6409;56.294;14.480;2022-12-29T09:50:32;2.50;;;2.30;;
12689;SDS011;6409;56.294;14.480;2022-12-29T09:53:03;3.20;;;2.50;;
12689;SDS011;6409;56.294;14.480;2022-12-29T09:55:33;3.67;;;3.17;;
12689;SDS011;6409;56.294;14.480;2022-12-29T09:58:03;2.60;;;2.50;;
12689;SDS011;6409;56.294;14.480;2022-12-29T10:00:34;2.53;;;2.43;;
12689;SDS011;6409;56.294;14.480;2022-12-29T10:03:05;2.70;;;2.53;;
12689;SDS011;6409;56.294;14.480;2022-12-29T10:05:39;2.73;;;2.53;;
12689;SDS011;6409;56.294;14.480;2022-12-29T10:08:16;3.13;;;2.60;;
12689;SDS011;6409;56.294;14.480;2022-12-29T10:10:53;2.20;;;2.10;;
12689;SDS011;6409;56.294;14.480;2022-12-29T10:13:28;2.60;;;2.40;;
12689;SDS011;6409;56.294;14.480;2022-12-29T10:16:05;2.63;;;2.47;;
12689;SDS011;6409;56.294;14.480;2022-12-29T10:18:47;2.80;;;2.60;;
12689;SDS011;6409;56.294;14.480;2022-12-29T10:21:34;2.77;;;2.60;;
12689;SDS011;6409;56.294;14.480;2022-12-29T10:24:10;2.67;;;2.47;;
12689;SDS011;6409;56.294;14.480;2022-12-29T10:26:39;2.73;;;2.60;;
12689;SDS011;6409;56.294;14.480;2022-12-29T10:29:11;2.73;;;2.23;;
12689;SDS011;6409;56.294;14.480;2022-12-29T10:31:43;2.57;;;2.37;;
12689;SDS011;6409;56.294;14.480;2022-12-29T10:34:15;2.40;;;2.30;;
12689;SDS011;6409;56.294;14.480;2022-12-29T10:36:47;2.40;;;2.30;;
12689;SDS011;6409;56.294;14.480;2022-12-29T10:39:16;2.50;;;2.37;;
12689;SDS011;6409;56.294;14.480;2022-12-29T10:41:49;2.80;;;2.50;;
12689;SDS011;6409;56.294;14.480;2022-12-29T10:44:20;2.50;;;2.40;;
12689;SDS011;6409;56.294;14.480;2022-12-29T10:46:52;2.63;;;2.53;;
12689;SDS011;6409;56.294;14.480;2022-12-29T10:49:22;2.30;;;2.20;;
12689;SDS011;6409;56.294;14.480;2022-12-29T10:51:54;2.30;;;2.20;;
12689;SDS011;6409;56.294;14.480;2022-12-29T10:54:26;2.20;;;2.10;;
12689;SDS011;6409;56.294;14.480;2022-12-29T10:56:59;1.83;;;1.73;;
12689;SDS011;6409;56.294;14.480;2022-12-29T10:59:29;2.10;;;2.00;;
12689;SDS011;6409;56.294;14.480;2022-12-29T11:02:00;2.00;;;1.90;;
12689;SDS011;6409;56.294;14.480;2022-12-29T11:04:38;2.00;;;1.90;;
12689;SDS011;6409;56.294;14.480;2022-12-29T11:07:15;1.97;;;1.90;;
12689;SDS011;6409;56.294;14.480;2022-12-29T11:09:44;2.00;;;1.90;;
12689;SDS011;6409;56.294;14.480;2022-12-29T11:12:23;2.00;;;1.90;;
12689;SDS011;6409;56.294;14.480;2022-12-29T11:17:44;2.10;;;2.00;;
12689;SDS011;6409;56.294;14.480;2022-12-29T11:20:24;2.43;;;2.27;;
12689;SDS011;6409;56.294;14.480;2022-12-29T11:23:05;1.80;;;1.70;;
12689;SDS011;6409;56.294;14.480;2022-12-29T11:25:49;1.60;;;1.60;;
12689;SDS011;6409;56.294;14.480;2022-12-29T11:28:34;1.90;;;1.80;;
12689;SDS011;6409;56.294;14.480;2022-12-29T11:31:03;1.77;;;1.77;;
12689;SDS011;6409;56.294;14.480;2022-12-29T11:33:33;2.23;;;2.00;;
12689;SDS011;6409;56.294;14.480;2022-12-29T11:36:04;1.73;;;1.63;;
12689;SDS011;6409;56.294;14.480;2022-12-29T11:38:36;2.30;;;2.10;;
12689;SDS011;6409;56.294;14.480;2022-12-29T11:41:06;2.00;;;1.90;;
12689;SDS011;6409;56.294;14.480;2022-12-29T11:43:38;2.33;;;2.17;;
12689;SDS011;6409;56.294;14.480;2022-12-29T11:46:12;2.60;;;2.40;;
12689;SDS011;6409;56.294;14.480;2022-12-29T11:48:44;2.70;;;2.43;;
12689;SDS011;6409;56.294;14.480;2022-12-29T11:51:20;4.90;;;1.90;;
12689;SDS011;6409;56.294;14.480;2022-12-29T11:53:51;2.43;;;2.27;;
12689;SDS011;6409;56.294;14.480;2022-12-29T11:56:31;2.53;;;2.33;;
12689;SDS011;6409;56.294;14.480;2022-12-29T12:02:08;2.63;;;2.20;;
12689;SDS011;6409;56.294;14.480;2022-12-29T12:04:59;2.60;;;2.50;;
12689;SDS011;6409;56.294;14.480;2022-12-29T12:07:34;2.10;;;2.00;;
12689;SDS011;6409;56.294;14.480;2022-12-29T12:10:10;1.90;;;1.80;;
12689;SDS011;6409;56.294;14.480;2022-12-29T12:12:47;2.10;;;2.00;;
12689;SDS011;6409;56.294;14.480;2022-12-29T12:15:20;2.10;;;1.90;;
12689;SDS011;6409;56.294;14.480;2022-12-29T12:17:51;1.90;;;1.80;;
12689;SDS011;6409;56.294;14.480;2022-12-29T12:20:22;1.63;;;1.53;;
12689;SDS011;6409;56.294;14.480;2022-12-29T12:22:58;1.80;;;1.70;;
12689;SDS011;6409;56.294;14.480;2022-12-29T12:25:37;4.33;;;2.50;;
12689;SDS011;6409;56.294;14.480;2022-12-29T12:28:08;1.67;;;1.57;;
12689;SDS011;6409;56.294;14.480;2022-12-29T12:30:39;8.90;;;2.17;;
12689;SDS011;6409;56.294;14.480;2022-12-29T12:33:11;3.77;;;1.90;;
12689;SDS011;6409;56.294;14.480;2022-12-29T12:35:43;2.17;;;1.83;;
12689;SDS011;6409;56.294;14.480;2022-12-29T12:38:15;3.40;;;2.13;;
12689;SDS011;6409;56.294;14.480;2022-12-29T12:40:58;1.50;;;1.40;;
12689;SDS011;6409;56.294;14.480;2022-12-29T12:46:15;4.33;;;1.60;;
12689;SDS011;6409;56.294;14.480;2022-12-29T12:49:11;4.83;;;1.70;;
12689;SDS011;6409;56.294;14.480;2022-12-29T12:51:47;6.70;;;1.50;;
12689;SDS011;6409;56.294;14.480;2022-12-29T12:54:23;10.50;;;2.03;;
12689;SDS011;6409;56.294;14.480;2022-12-29T12:57:01;1.33;;;1.33;;
12689;SDS011;6409;56.294;14.480;2022-12-29T12:59:37;6.13;;;1.90;;
12689;SDS011;6409;56.294;14.480;2022-12-29T13:02:13;1.87;;;1.57;;
12689;SDS011;6409;56.294;14.480;2022-12-29T13:04:52;1.30;;;1.30;;
12689;SDS011;6409;56.294;14.480;2022-12-29T13:07:28;1.90;;;1.80;;
12689;SDS011;6409;56.294;14.480;2022-12-29T13:10:12;1.80;;;1.70;;
12689;SDS011;6409;56.294;14.480;2022-12-29T13:12:50;5.90;;;2.20;;
12689;SDS011;6409;56.294;14.480;2022-12-29T13:15:24;1.33;;;1.33;;
12689;SDS011;6409;56.294;14.480;2022-12-29T13:18:02;4.67;;;1.93;;
12689;SDS011;6409;56.294;14.480;2022-12-29T13:20:33;2.63;;;1.23;;
12689;SDS011;6409;56.294;14.480;2022-12-29T13:23:05;1.40;;;1.40;;
12689;SDS011;6409;56.294;14.480;2022-12-29T13:25:37;3.23;;;2.10;;
12689;SDS011;6409;56.294;14.480;2022-12-29T13:28:12;1.70;;;1.60;;
12689;SDS011;6409;56.294;14.480;2022-12-29T13:30:45;8.30;;;1.63;;
12689;SDS011;6409;56.294;14.480;2022-12-29T13:33:21;3.53;;;1.97;;
12689;SDS011;6409;56.294;14.480;2022-12-29T13:35:53;1.97;;;1.60;;
12689;SDS011;6409;56.294;14.480;2022-12-29T13:38:24;1.40;;;1.30;;
12689;SDS011;6409;56.294;14.480;2022-12-29T13:40:53;1.10;;;1.10;;
12689;SDS011;6409;56.294;14.480;2022-12-29T13:43:23;1.37;;;1.30;;
12689;SDS011;6409;56.294;14.480;2022-12-29T13:45:55;1.27;;;1.17;;
12689;SDS011;6409;56.294;14.480;2022-12-29T13:48:26;6.60;;;1.53;;
12689;SDS011;6409;56.294;14.480;2022-12-29T13:51:00;1.50;;;1.40;;
12689;SDS011;6409;56.294;14.480;2022-12-29T13:53:30;1.40;;;1.40;;
12689;SDS011;6409;56.294;14.480;2022-12-29T13:56:05;2.17;;;1.50;;
12689;SDS011;6409;56.294;14.480;2022-12-29T13:58:37;9.30;;;1.63;;
12689;SDS011;6409;56.294;14.480;2022-12-29T14:01:08;3.30;;;2.80;;
12689;SDS011;6409;56.294;14.480;2022-12-29T14:03:43;7.07;;;2.10;;
12689;SDS011;6409;56.294;14.480;2022-12-29T14:06:15;2.17;;;2.07;;
12689;SDS011;6409;56.294;14.480;2022-12-29T14:08:48;2.00;;;1.63;;
12689;SDS011;6409;56.294;14.480;2022-12-29T14:11:16;1.90;;;1.80;;
12689;SDS011;6409;56.294;14.480;2022-12-29T14:13:46;5.93;;;2.63;;
12689;SDS011;6409;56.294;14.480;2022-12-29T14:16:23;6.27;;;2.13;;
12689;SDS011;6409;56.294;14.480;2022-12-29T14:18:56;11.13;;;2.90;;
12689;SDS011;6409;56.294;14.480;2022-12-29T14:21:30;1.50;;;1.40;;
12689;SDS011;6409;56.294;14.480;2022-12-29T14:24:25;10.87;;;2.10;;
12689;SDS011;6409;56.294;14.480;2022-12-29T14:33:28;3.97;;;2.07;;
12689;SDS011;6409;56.294;14.480;2022-12-29T14:35:56;1.60;;;1.57;;
12689;SDS011;6409;56.294;14.480;2022-12-29T14:38:24;3.27;;;2.23;;
12689;SDS011;6409;56.294;14.480;2022-12-29T14:43:54;3.50;;;2.13;;
12689;SDS011;6409;56.294;14.480;2022-12-29T14:46:45;6.20;;;2.30;;
12689;SDS011;6409;56.294;14.480;2022-12-29T14:49:17;2.43;;;1.77;;
12689;SDS011;6409;56.294;14.480;2022-12-29T14:51:45;1.50;;;1.47;;
12689;SDS011;6409;56.294;14.480;2022-12-29T14:57:13;2.50;;;1.80;;
12689;SDS011;6409;56.294;14.480;2022-12-29T14:59:44;1.33;;;1.20;;
12689;SDS011;6409;56.294;14.480;2022-12-29T15:02:13;2.20;;;1.80;;
12689;SDS011;6409;56.294;14.480;2022-12-29T15:04:45;4.60;;;1.70;;
12689;SDS011;6409;56.294;14.480;2022-12-29T15:07:13;1.53;;;1.43;;
12689;SDS011;6409;56.294;14.480;2022-12-29T15:09:41;1.33;;;1.30;;
12689;SDS011;6409;56.294;14.480;2022-12-29T15:12:15;2.03;;;1.93;;
12689;SDS011;6409;56.294;14.480;2022-12-29T15:14:50;1.43;;;1.37;;
12689;SDS011;6409;56.294;14.480;2022-12-29T15:17:25;5.23;;;1.70;;
12689;SDS011;6409;56.294;14.480;2022-12-29T15:19:55;4.63;;;1.83;;
12689;SDS011;6409;56.294;14.480;2022-12-29T15:22:23;5.20;;;1.40;;
12689;SDS011;6409;56.294;14.480;2022-12-29T15:24:51;2.27;;;1.57;;
12689;SDS011;6409;56.294;14.480;2022-12-29T15:27:21;1.23;;;1.20;;
12689;SDS011;6409;56.294;14.480;2022-12-29T15:29:55;2.70;;;1.17;;
12689;SDS011;6409;56.294;14.480;2022-12-29T15:32:23;1.57;;;1.47;;
12689;SDS011;6409;56.294;14.480;2022-12-29T15:34:53;2.20;;;1.33;;
12689;SDS011;6409;56.294;14.480;2022-12-29T15:37:25;3.53;;;1.20;;